sensor_id;sensor_type;location;lat;lon;timestamp;pressure;altitude;pressure_sealevel;temperature;humidity
29383;BME280;16365;51.598;7.668;2023-03-14T00:01:14;98416.06;;;18.45;45.52
29383;BME280;16365;51.598;7.668;2023-03-14T00:03:40;98413.72;;;18.43;45.61
29383;BME280;16365;51.598;7.668;2023-03-14T00:06:07;98422.19;;;18.40;45.29
29383;BME280;16365;51.598;7.668;2023-03-14T00:08:35;98422.19;;;18.40;45.12
29383;BME280;16365;51.598;7.668;2023-03-14T00:11:06;98413.44;;;18.38;44.86
29383;BME280;16365;51.598;7.668;2023-03-14T00:13:34;98417.47;;;18.37;44.91
29383;BME280;16365;51.598;7.668;2023-03-14T00:16:06;98411.94;;;18.33;45.30
29383;BME280;16365;51.598;7.668;2023-03-14T00:18:33;98418.75;;;18.32;45.08
29383;BME280;16365;51.598;7.668;2023-03-14T00:21:00;98398.00;;;18.30;45.14
29383;BME280;16365;51.598;7.668;2023-03-14T00:23:30;98390.81;;;18.29;45.18
29383;BME280;16365;51.598;7.668;2023-03-14T00:26:00;98378.03;;;18.28;45.47
29383;BME280;16365;51.598;7.668;2023-03-14T00:28:26;98381.63;;;18.28;45.49
29383;BME280;16365;51.598;7.668;2023-03-14T00:30:53;98384.41;;;18.28;45.36
29383;BME280;16365;51.598;7.668;2023-03-14T00:33:20;98380.81;;;18.28;45.16
29383;BME280;16365;51.598;7.668;2023-03-14T00:35:55;98378.44;;;18.26;45.37
29383;BME280;16365;51.598;7.668;2023-03-14T00:38:22;98398.06;;;18.26;45.25
29383;BME280;16365;51.598;7.668;2023-03-14T00:40:50;98421.75;;;18.25;45.37
29383;BME280;16365;51.598;7.668;2023-03-14T00:43:18;98419.38;;;18.23;45.35
29383;BME280;16365;51.598;7.668;2023-03-14T00:45:44;98413.41;;;18.21;45.20
29383;BME280;16365;51.598;7.668;2023-03-14T00:48:10;98418.66;;;18.19;45.14
29383;BME280;16365;51.598;7.668;2023-03-14T00:50:37;98435.13;;;18.17;45.57
29383;BME280;16365;51.598;7.668;2023-03-14T00:53:03;98431.66;;;18.13;45.42
29383;BME280;16365;51.598;7.668;2023-03-14T00:55:30;98420.41;;;18.13;45.51
29383;BME280;16365;51.598;7.668;2023-03-14T00:57:56;98415.59;;;18.14;45.52
29383;BME280;16365;51.598;7.668;2023-03-14T01:00:23;98408.75;;;18.15;45.53
29383;BME280;16365;51.598;7.668;2023-03-14T01:02:49;98389.13;;;18.15;45.77
29383;BME280;16365;51.598;7.668;2023-03-14T01:05:16;98388.34;;;18.14;45.55
29383;BME280;16365;51.598;7.668;2023-03-14T01:07:42;98381.94;;;18.14;45.34
29383;BME280;16365;51.598;7.668;2023-03-14T01:10:09;98374.75;;;18.13;45.27
29383;BME280;16365;51.598;7.668;2023-03-14T01:12:36;98390.00;;;18.12;45.45
29383;BME280;16365;51.598;7.668;2023-03-14T01:15:02;98374.41;;;18.11;45.63
29383;BME280;16365;51.598;7.668;2023-03-14T01:17:28;98370.81;;;18.10;45.30
29383;BME280;16365;51.598;7.668;2023-03-14T01:19:55;98369.56;;;18.11;45.26
29383;BME280;16365;51.598;7.668;2023-03-14T01:22:21;98379.56;;;18.12;45.46
29383;BME280;16365;51.598;7.668;2023-03-14T01:24:48;98383.97;;;18.13;45.41
29383;BME280;16365;51.598;7.668;2023-03-14T01:27:14;98391.16;;;18.14;45.74
29383;BME280;16365;51.598;7.668;2023-03-14T01:29:41;98401.13;;;18.15;45.69
29383;BME280;16365;51.598;7.668;2023-03-14T01:32:07;98432.44;;;18.14;45.55
29383;BME280;16365;51.598;7.668;2023-03-14T01:34:33;98470.09;;;18.13;45.35
29383;BME280;16365;51.598;7.668;2023-03-14T01:37:00;98462.19;;;18.08;45.25
29383;BME280;16365;51.598;7.668;2023-03-14T01:39:26;98462.78;;;17.99;45.21
29383;BME280;16365;51.598;7.668;2023-03-14T01:41:52;98445.84;;;17.86;45.08
29383;BME280;16365;51.598;7.668;2023-03-14T01:44:19;98441.69;;;17.75;45.51
29383;BME280;16365;51.598;7.668;2023-03-14T01:46:46;98422.75;;;17.59;45.05
29383;BME280;16365;51.598;7.668;2023-03-14T01:49:26;98415.41;;;17.45;45.48
29383;BME280;16365;51.598;7.668;2023-03-14T01:52:05;98416.91;;;17.30;45.63
29383;BME280;16365;51.598;7.668;2023-03-14T01:54:43;98412.75;;;17.18;45.56
29383;BME280;16365;51.598;7.668;2023-03-14T01:57:30;98417.75;;;17.07;45.73
29383;BME280;16365;51.598;7.668;2023-03-14T02:02:25;98398.84;;;16.91;46.01
29383;BME280;16365;51.598;7.668;2023-03-14T02:04:53;98395.75;;;16.85;46.19
29383;BME280;16365;51.598;7.668;2023-03-14T02:10:05;98393.91;;;16.75;46.09
29383;BME280;16365;51.598;7.668;2023-03-14T02:12:32;98381.19;;;16.70;46.58
29383;BME280;16365;51.598;7.668;2023-03-14T02:14:59;98366.88;;;16.65;46.45
29383;BME280;16365;51.598;7.668;2023-03-14T02:17:26;98385.31;;;16.62;46.54
29383;BME280;16365;51.598;7.668;2023-03-14T02:20:07;98370.19;;;16.60;46.14
29383;BME280;16365;51.598;7.668;2023-03-14T02:22:37;98378.63;;;16.56;46.53
29383;BME280;16365;51.598;7.668;2023-03-14T02:27:42;98378.69;;;16.53;46.81
29383;BME280;16365;51.598;7.668;2023-03-14T02:30:11;98385.94;;;16.50;46.53
29383;BME280;16365;51.598;7.668;2023-03-14T02:32:39;98389.94;;;16.49;46.87
29383;BME280;16365;51.598;7.668;2023-03-14T02:35:07;98395.53;;;16.49;46.96
29383;BME280;16365;51.598;7.668;2023-03-14T02:37:45;98383.53;;;16.49;46.81
29383;BME280;16365;51.598;7.668;2023-03-14T02:40:14;98388.34;;;16.48;46.57
29383;BME280;16365;51.598;7.668;2023-03-14T02:42:40;98390.34;;;16.48;47.09
29383;BME280;16365;51.598;7.668;2023-03-14T02:47:34;98391.91;;;16.49;47.00
29383;BME280;16365;51.598;7.668;2023-03-14T02:50:04;98398.34;;;16.49;46.89
29383;BME280;16365;51.598;7.668;2023-03-14T02:52:32;98398.34;;;16.49;46.65
29383;BME280;16365;51.598;7.668;2023-03-14T02:54:59;98387.16;;;16.49;46.93
29383;BME280;16365;51.598;7.668;2023-03-14T02:57:25;98387.50;;;16.51;46.81
29383;BME280;16365;51.598;7.668;2023-03-14T02:59:51;98380.69;;;16.52;46.73
29383;BME280;16365;51.598;7.668;2023-03-14T03:02:18;98381.47;;;16.53;47.26
29383;BME280;16365;51.598;7.668;2023-03-14T03:04:44;98380.63;;;16.56;47.32
29383;BME280;16365;51.598;7.668;2023-03-14T03:07:10;98380.59;;;16.59;46.91
29383;BME280;16365;51.598;7.668;2023-03-14T03:09:37;98381.72;;;16.62;47.31
29383;BME280;16365;51.598;7.668;2023-03-14T03:12:03;98385.69;;;16.64;47.31
29383;BME280;16365;51.598;7.668;2023-03-14T03:14:29;98376.41;;;16.67;47.10
29383;BME280;16365;51.598;7.668;2023-03-14T03:16:56;98371.22;;;16.69;46.83
29383;BME280;16365;51.598;7.668;2023-03-14T03:19:22;98380.78;;;16.72;47.34
29383;BME280;16365;51.598;7.668;2023-03-14T03:21:49;98364.78;;;16.73;46.96
29383;BME280;16365;51.598;7.668;2023-03-14T03:24:15;98356.75;;;16.75;47.29
29383;BME280;16365;51.598;7.668;2023-03-14T03:26:41;98360.78;;;16.74;47.26
29383;BME280;16365;51.598;7.668;2023-03-14T03:29:07;98367.94;;;16.75;47.30
29383;BME280;16365;51.598;7.668;2023-03-14T03:31:36;98364.72;;;16.76;47.29
29383;BME280;16365;51.598;7.668;2023-03-14T03:34:02;98359.13;;;16.76;46.94
29383;BME280;16365;51.598;7.668;2023-03-14T03:36:29;98352.75;;;16.76;47.34
29383;BME280;16365;51.598;7.668;2023-03-14T03:38:55;98354.75;;;16.75;47.33
29383;BME280;16365;51.598;7.668;2023-03-14T03:41:21;98345.13;;;16.76;46.98
29383;BME280;16365;51.598;7.668;2023-03-14T03:43:48;98351.09;;;16.78;47.15
29383;BME280;16365;51.598;7.668;2023-03-14T03:46:14;98349.09;;;16.79;47.30
29383;BME280;16365;51.598;7.668;2023-03-14T03:48:41;98355.47;;;16.79;47.29
29383;BME280;16365;51.598;7.668;2023-03-14T03:51:10;98355.47;;;16.79;47.20
29383;BME280;16365;51.598;7.668;2023-03-14T03:53:37;98349.88;;;16.79;46.86
29383;BME280;16365;51.598;7.668;2023-03-14T03:56:04;98351.91;;;16.79;47.25
29383;BME280;16365;51.598;7.668;2023-03-14T03:58:31;98348.72;;;16.77;47.29
29383;BME280;16365;51.598;7.668;2023-03-14T04:01:01;98345.91;;;16.77;47.24
29383;BME280;16365;51.598;7.668;2023-03-14T04:03:28;98341.88;;;16.78;47.11
29383;BME280;16365;51.598;7.668;2023-03-14T04:06:01;98344.69;;;16.78;47.11
29383;BME280;16365;51.598;7.668;2023-03-14T04:08:28;98343.91;;;16.77;47.30
29383;BME280;16365;51.598;7.668;2023-03-14T04:10:56;98346.69;;;16.77;47.15
29383;BME280;16365;51.598;7.668;2023-03-14T04:13:23;98345.56;;;16.75;47.18
29383;BME280;16365;51.598;7.668;2023-03-14T04:15:49;98342.38;;;16.73;46.78
29383;BME280;16365;51.598;7.668;2023-03-14T04:18:16;98338.00;;;16.72;46.78
29383;BME280;16365;51.598;7.668;2023-03-14T04:20:43;98342.00;;;16.70;47.06
29383;BME280;16365;51.598;7.668;2023-03-14T04:23:09;98335.63;;;16.70;47.24
29383;BME280;16365;51.598;7.668;2023-03-14T04:25:35;98328.84;;;16.67;47.16
29383;BME280;16365;51.598;7.668;2023-03-14T04:28:02;98338.47;;;16.66;47.24
29383;BME280;16365;51.598;7.668;2023-03-14T04:30:29;98339.69;;;16.65;47.23
29383;BME280;16365;51.598;7.668;2023-03-14T04:32:56;98342.94;;;16.64;47.30
29383;BME280;16365;51.598;7.668;2023-03-14T04:35:22;98345.34;;;16.62;47.22
29383;BME280;16365;51.598;7.668;2023-03-14T04:37:49;98346.94;;;16.63;47.20
29383;BME280;16365;51.598;7.668;2023-03-14T04:40:16;98340.97;;;16.61;47.10
29383;BME280;16365;51.598;7.668;2023-03-14T04:42:44;98334.59;;;16.60;47.38
29383;BME280;16365;51.598;7.668;2023-03-14T04:45:10;98332.22;;;16.59;47.33
29383;BME280;16365;51.598;7.668;2023-03-14T04:47:36;98325.41;;;16.60;46.95
29383;BME280;16365;51.598;7.668;2023-03-14T04:50:03;98328.22;;;16.60;47.46
29383;BME280;16365;51.598;7.668;2023-03-14T04:52:29;98330.22;;;16.59;47.29
29383;BME280;16365;51.598;7.668;2023-03-14T04:54:55;98327.84;;;16.58;46.96
29383;BME280;16365;51.598;7.668;2023-03-14T04:57:22;98327.84;;;16.58;47.38
29383;BME280;16365;51.598;7.668;2023-03-14T04:59:48;98334.66;;;16.57;47.23
29383;BME280;16365;51.598;7.668;2023-03-14T05:02:15;98329.94;;;16.54;46.96
29383;BME280;16365;51.598;7.668;2023-03-14T05:04:41;98333.13;;;16.52;46.96
29383;BME280;16365;51.598;7.668;2023-03-14T05:07:07;98331.63;;;16.48;47.36
29383;BME280;16365;51.598;7.668;2023-03-14T05:09:34;98332.88;;;16.43;46.84
29383;BME280;16365;51.598;7.668;2023-03-14T05:12:00;98326.56;;;16.39;47.27
29383;BME280;16365;51.598;7.668;2023-03-14T05:14:27;98328.28;;;16.33;47.15
29383;BME280;16365;51.598;7.668;2023-03-14T05:16:54;98319.59;;;16.27;47.38
29383;BME280;16365;51.598;7.668;2023-03-14T05:19:20;98312.47;;;16.23;47.26
29383;BME280;16365;51.598;7.668;2023-03-14T05:21:48;98306.53;;;16.21;47.21
29383;BME280;16365;51.598;7.668;2023-03-14T05:24:14;98307.00;;;16.15;47.07
29383;BME280;16365;51.598;7.668;2023-03-14T05:26:40;98316.66;;;16.11;47.55
29383;BME280;16365;51.598;7.668;2023-03-14T05:29:07;98311.91;;;16.08;47.28
29383;BME280;16365;51.598;7.668;2023-03-14T05:31:33;98311.16;;;16.04;47.53
29383;BME280;16365;51.598;7.668;2023-03-14T05:34:00;98304.44;;;16.01;47.26
29383;BME280;16365;51.598;7.668;2023-03-14T05:36:26;98309.72;;;15.96;47.38
29383;BME280;16365;51.598;7.668;2023-03-14T05:38:52;98306.59;;;15.90;47.33
29383;BME280;16365;51.598;7.668;2023-03-14T05:41:19;98310.28;;;15.83;47.35
29383;BME280;16365;51.598;7.668;2023-03-14T05:43:46;98313.56;;;15.78;47.35
29383;BME280;16365;51.598;7.668;2023-03-14T05:46:13;98297.72;;;15.72;47.31
29383;BME280;16365;51.598;7.668;2023-03-14T05:48:39;98298.19;;;15.66;47.59
29383;BME280;16365;51.598;7.668;2023-03-14T05:51:06;98294.63;;;15.62;47.27
29383;BME280;16365;51.598;7.668;2023-03-14T05:53:32;98296.66;;;15.58;47.63
29383;BME280;16365;51.598;7.668;2023-03-14T05:55:58;98303.09;;;15.55;47.53
29383;BME280;16365;51.598;7.668;2023-03-14T05:58:25;98286.75;;;15.54;47.74
29383;BME280;16365;51.598;7.668;2023-03-14T06:00:51;98293.97;;;15.51;47.90
29383;BME280;16365;51.598;7.668;2023-03-14T06:03:17;98292.81;;;15.49;47.82
29383;BME280;16365;51.598;7.668;2023-03-14T06:05:45;98292.03;;;15.48;48.01
29383;BME280;16365;51.598;7.668;2023-03-14T06:08:12;98294.03;;;15.48;47.88
29383;BME280;16365;51.598;7.668;2023-03-14T06:10:43;98285.66;;;15.48;48.01
29383;BME280;16365;51.598;7.668;2023-03-14T06:13:09;98279.25;;;15.47;48.03
29383;BME280;16365;51.598;7.668;2023-03-14T06:15:35;98282.03;;;15.47;48.17
29383;BME280;16365;51.598;7.668;2023-03-14T06:18:02;98277.63;;;15.50;48.10
29383;BME280;16365;51.598;7.668;2023-03-14T06:20:28;98270.03;;;15.50;48.25
29383;BME280;16365;51.598;7.668;2023-03-14T06:22:55;98277.59;;;15.53;48.12
29383;BME280;16365;51.598;7.668;2023-03-14T06:25:21;98277.16;;;15.55;48.24
29383;BME280;16365;51.598;7.668;2023-03-14T06:27:48;98277.50;;;15.57;48.30
29383;BME280;16365;51.598;7.668;2023-03-14T06:30:14;98275.91;;;15.59;48.55
29383;BME280;16365;51.598;7.668;2023-03-14T06:32:40;98280.66;;;15.62;48.33
29383;BME280;16365;51.598;7.668;2023-03-14T06:35:07;98274.28;;;15.62;48.48
29383;BME280;16365;51.598;7.668;2023-03-14T06:37:34;98272.63;;;15.68;48.58
29383;BME280;16365;51.598;7.668;2023-03-14T06:40:00;98265.38;;;15.71;48.61
29383;BME280;16365;51.598;7.668;2023-03-14T06:42:27;98261.75;;;15.74;48.49
29383;BME280;16365;51.598;7.668;2023-03-14T06:44:53;98263.28;;;15.78;48.63
29383;BME280;16365;51.598;7.668;2023-03-14T06:47:20;98258.81;;;15.81;48.64
29383;BME280;16365;51.598;7.668;2023-03-14T06:49:46;98262.00;;;15.83;48.52
29383;BME280;16365;51.598;7.668;2023-03-14T06:52:15;98272.34;;;15.86;48.59
29383;BME280;16365;51.598;7.668;2023-03-14T06:54:41;98267.13;;;15.88;48.61
29383;BME280;16365;51.598;7.668;2023-03-14T06:57:08;98253.94;;;15.88;48.91
29383;BME280;16365;51.598;7.668;2023-03-14T06:59:34;98274.66;;;15.91;48.79
29383;BME280;16365;51.598;7.668;2023-03-14T07:02:00;98276.59;;;15.94;48.84
29383;BME280;16365;51.598;7.668;2023-03-14T07:04:27;98271.38;;;15.96;48.88
29383;BME280;16365;51.598;7.668;2023-03-14T07:06:53;98272.09;;;16.00;49.02
29383;BME280;16365;51.598;7.668;2023-03-14T07:09:20;98279.63;;;16.03;48.97
29383;BME280;16365;51.598;7.668;2023-03-14T07:11:46;98271.19;;;16.07;49.12
29383;BME280;16365;51.598;7.668;2023-03-14T07:14:13;98275.53;;;16.11;48.74
29383;BME280;16365;51.598;7.668;2023-03-14T07:16:39;98273.47;;;16.15;48.89
29383;BME280;16365;51.598;7.668;2023-03-14T07:19:06;98278.19;;;16.18;48.81
29383;BME280;16365;51.598;7.668;2023-03-14T07:21:32;98278.91;;;16.23;48.63
29383;BME280;16365;51.598;7.668;2023-03-14T07:24:00;98277.69;;;16.24;48.73
29383;BME280;16365;51.598;7.668;2023-03-14T07:26:27;98275.63;;;16.28;48.84
29383;BME280;16365;51.598;7.668;2023-03-14T07:28:54;98279.59;;;16.30;48.78
29383;BME280;16365;51.598;7.668;2023-03-14T07:31:20;98279.16;;;16.32;48.72
29383;BME280;16365;51.598;7.668;2023-03-14T07:33:46;98279.94;;;16.32;48.99
29383;BME280;16365;51.598;7.668;2023-03-14T07:36:13;98280.31;;;16.34;48.81
29383;BME280;16365;51.598;7.668;2023-03-14T07:38:41;98280.69;;;16.36;48.52
29383;BME280;16365;51.598;7.668;2023-03-14T07:41:08;98269.94;;;16.35;48.71
29383;BME280;16365;51.598;7.668;2023-03-14T07:43:34;98278.66;;;16.37;48.88
29383;BME280;16365;51.598;7.668;2023-03-14T07:46:00;98288.22;;;16.39;48.95
29383;BME280;16365;51.598;7.668;2023-03-14T07:48:27;98292.53;;;16.44;49.12
29383;BME280;16365;51.598;7.668;2023-03-14T07:50:54;98285.28;;;16.47;48.90
29383;BME280;16365;51.598;7.668;2023-03-14T07:53:21;98286.00;;;16.51;49.47
29383;BME280;16365;51.598;7.668;2023-03-14T07:55:50;98288.75;;;16.54;48.83
29383;BME280;16365;51.598;7.668;2023-03-14T07:58:17;98281.06;;;16.58;49.37
29383;BME280;16365;51.598;7.668;2023-03-14T08:00:44;98285.38;;;16.63;49.11
29383;BME280;16365;51.598;7.668;2023-03-14T08:03:10;98284.09;;;16.67;49.15
29383;BME280;16365;51.598;7.668;2023-03-14T08:05:37;98285.22;;;16.74;49.26
29383;BME280;16365;51.598;7.668;2023-03-14T08:08:04;98287.53;;;16.79;49.45
29383;BME280;16365;51.598;7.668;2023-03-14T08:10:31;98288.59;;;16.85;49.13
29383;BME280;16365;51.598;7.668;2023-03-14T08:12:59;98293.34;;;16.88;49.36
29383;BME280;16365;51.598;7.668;2023-03-14T08:15:27;98291.25;;;16.92;49.38
29383;BME280;16365;51.598;7.668;2023-03-14T08:17:54;98288.38;;;16.95;49.25
29383;BME280;16365;51.598;7.668;2023-03-14T08:20:21;98297.06;;;17.01;49.01
29383;BME280;16365;51.598;7.668;2023-03-14T08:22:48;98301.03;;;17.04;48.71
29383;BME280;16365;51.598;7.668;2023-03-14T08:25:15;98302.97;;;17.07;48.65
29383;BME280;16365;51.598;7.668;2023-03-14T08:27:42;98304.91;;;17.10;48.85
29383;BME280;16365;51.598;7.668;2023-03-14T08:30:13;98307.63;;;17.13;48.75
29383;BME280;16365;51.598;7.668;2023-03-14T08:32:40;98312.38;;;17.16;48.63
29383;BME280;16365;51.598;7.668;2023-03-14T08:35:07;98301.97;;;17.17;49.28
29383;BME280;16365;51.598;7.668;2023-03-14T08:37:34;98312.72;;;17.18;48.66
29383;BME280;16365;51.598;7.668;2023-03-14T08:40:00;98306.34;;;17.18;48.61
29383;BME280;16365;51.598;7.668;2023-03-14T08:42:29;98307.91;;;17.19;48.58
29383;BME280;16365;51.598;7.668;2023-03-14T08:44:55;98305.13;;;17.19;48.80
29383;BME280;16365;51.598;7.668;2023-03-14T08:47:22;98307.13;;;17.18;48.86
29383;BME280;16365;51.598;7.668;2023-03-14T08:49:48;98309.50;;;17.20;49.16
29383;BME280;16365;51.598;7.668;2023-03-14T08:52:15;98313.84;;;17.21;48.70
29383;BME280;16365;51.598;7.668;2023-03-14T08:54:45;98309.88;;;17.22;49.18
29383;BME280;16365;51.598;7.668;2023-03-14T08:57:11;98314.59;;;17.25;49.09
29383;BME280;16365;51.598;7.668;2023-03-14T08:59:37;98312.94;;;17.28;49.29
29383;BME280;16365;51.598;7.668;2023-03-14T09:02:04;98321.34;;;17.28;48.79
29383;BME280;16365;51.598;7.668;2023-03-14T09:04:31;98330.53;;;17.28;49.12
29383;BME280;16365;51.598;7.668;2023-03-14T09:06:59;98323.34;;;17.27;48.92
29383;BME280;16365;51.598;7.668;2023-03-14T09:09:25;98324.59;;;17.26;48.93
29383;BME280;16365;51.598;7.668;2023-03-14T09:11:56;98334.19;;;17.25;48.73
29383;BME280;16365;51.598;7.668;2023-03-14T09:14:23;98333.06;;;17.23;49.08
29383;BME280;16365;51.598;7.668;2023-03-14T09:16:49;98339.06;;;17.21;48.80
29383;BME280;16365;51.598;7.668;2023-03-14T09:19:16;98339.16;;;17.17;48.85
29383;BME280;16365;51.598;7.668;2023-03-14T09:21:43;98326.00;;;17.14;48.79
29383;BME280;16365;51.598;7.668;2023-03-14T09:24:09;98326.44;;;17.13;49.09
29383;BME280;16365;51.598;7.668;2023-03-14T09:26:35;98319.69;;;17.10;48.96
29383;BME280;16365;51.598;7.668;2023-03-14T09:29:01;98326.44;;;17.13;49.40
29383;BME280;16365;51.598;7.668;2023-03-14T09:31:28;98328.81;;;17.14;49.92
29383;BME280;16365;51.598;7.668;2023-03-14T09:33:55;98333.91;;;17.19;49.79
29383;BME280;16365;51.598;7.668;2023-03-14T09:36:22;98340.56;;;17.26;49.79
29383;BME280;16365;51.598;7.668;2023-03-14T09:38:49;98332.47;;;17.31;49.65
29383;BME280;16365;51.598;7.668;2023-03-14T09:41:16;98339.59;;;17.36;49.81
29383;BME280;16365;51.598;7.668;2023-03-14T09:43:44;98341.88;;;17.41;50.03
29383;BME280;16365;51.598;7.668;2023-03-14T09:46:11;98345.03;;;17.43;49.37
29383;BME280;16365;51.598;7.668;2023-03-14T09:48:39;98342.56;;;17.45;49.50
29383;BME280;16365;51.598;7.668;2023-03-14T09:51:07;98361.41;;;17.44;49.45
29383;BME280;16365;51.598;7.668;2023-03-14T09:53:40;98367.00;;;17.44;49.58
29383;BME280;16365;51.598;7.668;2023-03-14T09:56:11;98363.47;;;17.40;49.71
29383;BME280;16365;51.598;7.668;2023-03-14T09:58:39;98378.38;;;17.37;48.91
29383;BME280;16365;51.598;7.668;2023-03-14T10:01:07;98363.69;;;17.30;49.23
29383;BME280;16365;51.598;7.668;2023-03-14T10:03:36;98435.78;;;17.26;49.05
29383;BME280;16365;51.598;7.668;2023-03-14T10:06:09;98438.38;;;17.16;48.29
29383;BME280;16365;51.598;7.668;2023-03-14T10:08:39;98446.16;;;17.05;48.02
29383;BME280;16365;51.598;7.668;2023-03-14T10:11:05;98454.75;;;16.94;48.20
29383;BME280;16365;51.598;7.668;2023-03-14T10:13:35;98473.31;;;16.85;48.09
29383;BME280;16365;51.598;7.668;2023-03-14T10:16:02;98470.69;;;16.74;48.42
29383;BME280;16365;51.598;7.668;2023-03-14T10:18:30;98472.78;;;16.66;48.36
29383;BME280;16365;51.598;7.668;2023-03-14T10:21:04;98479.69;;;16.58;48.34
29383;BME280;16365;51.598;7.668;2023-03-14T10:23:33;98491.34;;;16.53;48.62
29383;BME280;16365;51.598;7.668;2023-03-14T10:28:34;98520.34;;;16.39;48.37
29383;BME280;16365;51.598;7.668;2023-03-14T10:31:00;98540.78;;;16.33;48.60
29383;BME280;16365;51.598;7.668;2023-03-14T10:33:28;98562.84;;;16.27;48.23
29383;BME280;16365;51.598;7.668;2023-03-14T10:35:56;98565.31;;;16.22;48.17
29383;BME280;16365;51.598;7.668;2023-03-14T10:38:25;98610.50;;;16.16;48.43
29383;BME280;16365;51.598;7.668;2023-03-14T10:40:53;98620.19;;;16.08;48.13
29383;BME280;16365;51.598;7.668;2023-03-14T10:43:22;98637.44;;;16.00;47.98
29383;BME280;16365;51.598;7.668;2023-03-14T10:45:51;98641.53;;;15.91;48.34
29383;BME280;16365;51.598;7.668;2023-03-14T10:48:20;98645.59;;;15.83;48.14
29383;BME280;16365;51.598;7.668;2023-03-14T10:50:57;98650.44;;;15.76;48.26
29383;BME280;16365;51.598;7.668;2023-03-14T10:53:24;98662.50;;;15.69;48.20
29383;BME280;16365;51.598;7.668;2023-03-14T10:55:52;98664.50;;;15.65;48.39
29383;BME280;16365;51.598;7.668;2023-03-14T10:58:23;98676.91;;;15.60;48.15
29383;BME280;16365;51.598;7.668;2023-03-14T11:01:02;98688.09;;;15.57;48.49
29383;BME280;16365;51.598;7.668;2023-03-14T11:03:34;98703.69;;;15.54;48.51
29383;BME280;16365;51.598;7.668;2023-03-14T11:08:37;98724.88;;;15.48;48.11
29383;BME280;16365;51.598;7.668;2023-03-14T11:11:14;98748.84;;;15.42;48.15
29383;BME280;16365;51.598;7.668;2023-03-14T11:13:53;98771.59;;;15.37;48.17
29383;BME280;16365;51.598;7.668;2023-03-14T11:27:17;98870.28;;;15.02;47.89
29383;BME280;16365;51.598;7.668;2023-03-14T11:29:50;98887.03;;;14.91;47.82
29383;BME280;16365;51.598;7.668;2023-03-14T11:35:28;98924.16;;;14.70;47.73
29383;BME280;16365;51.598;7.668;2023-03-14T11:40:35;98956.41;;;14.50;47.92
29383;BME280;16365;51.598;7.668;2023-03-14T11:43:06;98973.50;;;14.41;47.87
29383;BME280;16365;51.598;7.668;2023-03-14T11:45:36;98984.25;;;14.32;47.55
29383;BME280;16365;51.598;7.668;2023-03-14T11:48:07;98986.22;;;14.24;47.87
29383;BME280;16365;51.598;7.668;2023-03-14T11:50:39;98999.75;;;14.19;47.66
29383;BME280;16365;51.598;7.668;2023-03-14T11:53:09;99010.88;;;14.15;47.74
29383;BME280;16365;51.598;7.668;2023-03-14T11:55:40;99023.19;;;14.10;47.77
29383;BME280;16365;51.598;7.668;2023-03-14T12:00:38;99039.47;;;14.01;47.97
29383;BME280;16365;51.598;7.668;2023-03-14T12:05:39;99055.00;;;13.95;47.89
29383;BME280;16365;51.598;7.668;2023-03-14T12:10:39;99061.72;;;13.91;47.54
29383;BME280;16365;51.598;7.668;2023-03-14T12:13:08;99058.94;;;13.91;47.43
29383;BME280;16365;51.598;7.668;2023-03-14T12:15:41;99072.88;;;13.91;47.83
29383;BME280;16365;51.598;7.668;2023-03-14T12:21:03;99090.78;;;13.89;47.83
29383;BME280;16365;51.598;7.668;2023-03-14T12:23:37;99096.34;;;13.89;47.88
29383;BME280;16365;51.598;7.668;2023-03-14T12:28:33;99111.06;;;13.86;47.67
29383;BME280;16365;51.598;7.668;2023-03-14T12:33:45;99128.16;;;13.85;47.39
29383;BME280;16365;51.598;7.668;2023-03-14T12:36:12;99140.50;;;13.84;47.36
29383;BME280;16365;51.598;7.668;2023-03-14T12:38:47;99148.06;;;13.83;48.03
29383;BME280;16365;51.598;7.668;2023-03-14T12:41:26;99148.84;;;13.80;48.00
29383;BME280;16365;51.598;7.668;2023-03-14T12:43:53;99154.00;;;13.78;47.63
29383;BME280;16365;51.598;7.668;2023-03-14T12:46:21;99160.34;;;13.75;47.23
29383;BME280;16365;51.598;7.668;2023-03-14T12:51:17;99169.50;;;13.76;47.44
29383;BME280;16365;51.598;7.668;2023-03-14T12:56:28;99178.72;;;13.83;47.75
29383;BME280;16365;51.598;7.668;2023-03-14T12:59:05;99189.88;;;13.91;48.03
29383;BME280;16365;51.598;7.668;2023-03-14T13:01:36;99198.72;;;14.00;48.28
29383;BME280;16365;51.598;7.668;2023-03-14T13:04:11;99193.56;;;14.05;48.02
29383;BME280;16365;51.598;7.668;2023-03-14T13:06:54;99205.13;;;14.11;47.75
29383;BME280;16365;51.598;7.668;2023-03-14T13:12:00;99225.50;;;14.19;48.17
29383;BME280;16365;51.598;7.668;2023-03-14T13:14:28;99242.22;;;14.19;47.81
29383;BME280;16365;51.598;7.668;2023-03-14T13:16:55;99263.31;;;14.16;47.39
29383;BME280;16365;51.598;7.668;2023-03-14T13:19:23;99276.44;;;14.12;47.49
29383;BME280;16365;51.598;7.668;2023-03-14T13:21:56;99295.91;;;14.08;47.04
29383;BME280;16365;51.598;7.668;2023-03-14T13:24:35;99299.38;;;13.95;46.72
29383;BME280;16365;51.598;7.668;2023-03-14T13:27:02;99301.19;;;13.76;46.26
29383;BME280;16365;51.598;7.668;2023-03-14T13:29:30;99299.81;;;13.56;46.38
29383;BME280;16365;51.598;7.668;2023-03-14T13:31:58;99292.06;;;13.35;46.24
29383;BME280;16365;51.598;7.668;2023-03-14T13:34:29;99303.38;;;13.19;46.99
29383;BME280;16365;51.598;7.668;2023-03-14T13:36:55;99304.38;;;13.04;47.14
29383;BME280;16365;51.598;7.668;2023-03-14T13:39:23;99315.00;;;12.95;46.98
29383;BME280;16365;51.598;7.668;2023-03-14T13:41:55;99337.16;;;12.88;47.16
29383;BME280;16365;51.598;7.668;2023-03-14T13:44:27;99326.00;;;12.84;47.29
29383;BME280;16365;51.598;7.668;2023-03-14T13:47:03;99327.56;;;12.81;47.58
29383;BME280;16365;51.598;7.668;2023-03-14T13:49:32;99329.50;;;12.81;47.59
29383;BME280;16365;51.598;7.668;2023-03-14T13:52:01;99329.94;;;12.83;48.22
29383;BME280;16365;51.598;7.668;2023-03-14T13:54:29;99344.28;;;12.85;47.86
29383;BME280;16365;51.598;7.668;2023-03-14T13:57:00;99347.91;;;12.89;47.75
29383;BME280;16365;51.598;7.668;2023-03-14T13:59:28;99360.69;;;12.94;48.62